Time;durP1;ratioP1;P1;durP2;ratioP2;P2;SDS_P1;SDS_P2;PMS_P1;PMS_P2;Temp;Humidity;BMP_temperature;BMP_pressure;BME280_temperature;BME280_humidity;BME280_pressure;Samples;Min_cycle;Max_cycle;Signal;HPM_P1;HPM_P2
2022/12/09 00:01:50;;;;;;;16.13;8.25;;;;;;;3.46;100.00;98412.41;5091193;28;20028;-85
2022/12/09 00:04:16;;;;;;;24.67;11.93;;;;;;;3.44;100.00;98417.75;5094156;28;20035;-85
2022/12/09 00:06:41;;;;;;;11.10;5.13;;;;;;;3.13;100.00;98427.00;5094364;28;20028;-84
2022/12/09 00:09:12;;;;;;;8.30;4.57;;;;;;;3.11;100.00;98421.16;5094792;28;20055;-83
2022/12/09 00:11:38;;;;;;;10.68;5.35;;;;;;;3.22;100.00;98414.84;5094304;28;20077;-83
2022/12/09 00:14:03;;;;;;;13.85;5.47;;;;;;;3.33;100.00;98418.91;5094623;28;20020;-83
2022/12/09 00:16:29;;;;;;;12.27;4.47;;;;;;;3.46;100.00;98408.03;5076115;28;20115;-83
2022/12/09 00:18:56;;;;;;;11.48;4.90;;;;;;;3.50;100.00;98409.31;5074394;28;20020;-83
2022/12/09 00:21:27;;;;;;;7.90;4.57;;;;;;;3.28;100.00;98411.59;5075685;28;20031;-82
2022/12/09 00:23:57;;;;;;;7.43;4.93;;;;;;;3.56;100.00;98419.03;5093762;28;20028;-82
2022/12/09 00:26:24;;;;;;;7.63;3.95;;;;;;;3.56;100.00;98411.25;5075552;28;20028;-83
2022/12/09 00:28:50;;;;;;;10.77;4.32;;;;;;;3.46;100.00;98409.81;5093952;28;20040;-83
2022/12/09 00:31:20;;;;;;;8.93;4.28;;;;;;;3.60;100.00;98406.53;5075520;28;20024;-82
2022/12/09 00:33:46;;;;;;;11.00;4.72;;;;;;;3.36;100.00;98407.41;5103272;28;20027;-83
2022/12/09 00:36:14;;;;;;;5.85;3.65;;;;;;;3.54;100.00;98408.03;5098242;28;20081;-81
2022/12/09 00:38:41;;;;;;;6.68;3.60;;;;;;;3.34;100.00;98398.94;5080305;28;20055;-82
2022/12/09 00:41:07;;;;;;;5.80;3.50;;;;;;;3.21;100.00;98400.25;5074873;28;20119;-83
2022/12/09 00:43:33;;;;;;;12.23;4.70;;;;;;;3.11;100.00;98394.41;5073136;28;20123;-81
2022/12/09 00:45:58;;;;;;;8.00;3.80;;;;;;;3.04;100.00;98399.44;5093263;28;20085;-83
2022/12/09 00:48:25;;;;;;;9.48;4.10;;;;;;;3.12;100.00;98406.41;5090903;28;20028;-83
2022/12/09 00:50:51;;;;;;;10.77;4.25;;;;;;;2.97;100.00;98399.28;5093641;28;20031;-82
2022/12/09 00:53:17;;;;;;;8.43;3.78;;;;;;;2.91;100.00;98397.31;5092984;28;20024;-82
2022/12/09 00:55:44;;;;;;;12.93;3.78;;;;;;;2.89;100.00;98396.69;5083094;28;20107;-81
2022/12/09 00:58:09;;;;;;;9.63;3.90;;;;;;;2.68;100.00;98400.53;5088416;28;20056;-82
2022/12/09 01:00:35;;;;;;;8.73;3.90;;;;;;;2.77;100.00;98392.78;5089895;28;20103;-80
2022/12/09 01:03:01;;;;;;;11.05;3.95;;;;;;;2.56;100.00;98396.66;5091335;28;20028;-82
2022/12/09 01:05:28;;;;;;;6.90;3.45;;;;;;;2.64;100.00;98388.88;5058299;28;20039;-82
2022/12/09 01:07:53;;;;;;;6.25;3.58;;;;;;;2.52;100.00;98396.13;5088752;28;20024;-81
2022/12/09 01:10:19;;;;;;;11.00;3.50;;;;;;;2.63;100.00;98387.25;5073285;28;20474;-82
2022/12/09 01:12:45;;;;;;;7.28;3.95;;;;;;;2.39;100.00;98396.59;5092808;28;20047;-80
2022/12/09 01:15:11;;;;;;;10.80;3.72;;;;;;;2.18;100.00;98388.44;5092153;28;20059;-80
2022/12/09 01:17:38;;;;;;;12.23;4.20;;;;;;;2.61;100.00;98390.97;5068545;28;20036;-80
2022/12/09 01:20:08;;;;;;;7.13;3.47;;;;;;;2.56;100.00;98386.28;5069369;28;20024;-80
2022/12/09 01:22:34;;;;;;;12.07;3.47;;;;;;;2.52;100.00;98379.78;5090322;28;20092;-79
2022/12/09 01:25:00;;;;;;;15.05;3.88;;;;;;;2.53;100.00;98381.41;5091189;28;20486;-79
2022/12/09 01:27:28;;;;;;;5.40;3.30;;;;;;;2.41;100.00;98386.88;5091732;28;20111;-80
2022/12/09 01:29:54;;;;;;;10.45;3.47;;;;;;;2.48;100.00;98389.66;5091447;28;20032;-80
2022/12/09 01:32:20;;;;;;;12.68;3.72;;;;;;;2.47;100.00;98389.81;5091744;28;20051;-79
2022/12/09 01:34:45;;;;;;;9.63;3.40;;;;;;;2.23;100.00;98373.22;5091231;28;20149;-80
2022/12/09 01:37:11;;;;;;;6.55;3.22;;;;;;;2.44;100.00;98375.38;5092239;28;20479;-80
2022/12/09 01:39:38;;;;;;;11.32;3.80;;;;;;;2.40;100.00;98380.09;5069048;28;20081;-80
2022/12/09 01:42:04;;;;;;;9.10;3.75;;;;;;;2.13;100.00;98386.31;5093988;28;20044;-79
2022/12/09 01:44:31;;;;;;;14.38;3.15;;;;;;;2.35;100.00;98390.09;5087359;28;20094;-79
2022/12/09 01:46:59;;;;;;;14.07;3.38;;;;;;;2.13;100.00;98386.31;5091777;28;20036;-79
2022/12/09 01:49:34;;;;;;;13.15;3.65;;;;;;;2.40;100.00;98381.84;5091028;28;20157;-83
2022/12/09 01:52:20;;;;;;;8.73;3.38;;;;;;;2.28;100.00;98389.94;5090758;28;20089;-80
2022/12/09 01:54:47;;;;;;;6.38;2.97;;;;;;;2.36;100.00;98381.38;5071630;28;20034;-82
2022/12/09 01:57:14;;;;;;;5.45;3.28;;;;;;;2.35;100.00;98384.91;5090627;28;20035;-82
2022/12/09 01:59:41;;;;;;;15.85;3.08;;;;;;;2.26;100.00;98385.88;5090786;28;20076;-81
2022/12/09 02:02:10;;;;;;;6.82;2.92;;;;;;;2.30;100.00;98386.38;5073204;28;20492;-80
2022/12/09 02:04:40;;;;;;;16.02;3.15;;;;;;;2.26;100.00;98380.69;5090620;28;20051;-84
2022/12/09 02:07:09;;;;;;;7.93;3.22;;;;;;;2.04;100.00;98372.53;5091358;28;20027;-82
2022/12/09 02:09:36;;;;;;;10.10;3.47;;;;;;;2.20;100.00;98373.56;5073055;28;20028;-81
2022/12/09 02:12:11;;;;;;;14.88;3.53;;;;;;;2.10;100.00;98382.25;5083749;28;20032;-83
2022/12/09 02:14:47;;;;;;;18.92;3.25;;;;;;;2.10;100.00;98371.88;5090811;28;20525;-81
2022/12/09 02:17:35;;;;;;;8.93;2.90;;;;;;;2.12;100.00;98380.31;5091485;28;20047;-81
2022/12/09 02:20:24;;;;;;;12.20;3.25;;;;;;;2.01;100.00;98383.19;5090003;28;20028;-80
2022/12/09 02:23:20;;;;;;;14.65;2.85;;;;;;;2.06;100.00;98380.94;5086094;28;20031;-81
2022/12/09 02:25:59;;;;;;;12.75;2.80;;;;;;;1.91;100.00;98382.47;5104836;28;20036;-80
2022/12/09 02:28:49;;;;;;;7.75;2.78;;;;;;;2.07;100.00;98377.38;5087069;28;20031;-80
2022/12/09 02:31:17;;;;;;;22.45;3.67;;;;;;;1.88;100.00;98373.28;5090462;28;20036;-80
2022/12/09 02:34:13;;;;;;;9.60;2.72;;;;;;;2.01;100.00;98375.44;5085686;28;20074;-81
2022/12/09 02:36:54;;;;;;;9.02;3.05;;;;;;;1.91;100.00;98374.72;5070009;28;20382;-81
2022/12/09 02:39:27;;;;;;;6.45;2.58;;;;;;;1.92;100.00;98373.75;5089075;28;20024;-81
2022/12/09 02:41:56;;;;;;;7.82;3.05;;;;;;;1.82;100.00;98379.03;5090338;28;20027;-81
2022/12/09 02:44:24;;;;;;;12.38;3.10;;;;;;;1.83;100.00;98365.97;5089782;28;20044;-82
2022/12/09 02:46:52;;;;;;;10.50;3.25;;;;;;;1.92;100.00;98371.16;5090284;28;20043;-81
2022/12/09 02:49:20;;;;;;;10.88;2.80;;;;;;;1.91;100.00;98377.31;5089941;28;20450;-81
2022/12/09 02:51:48;;;;;;;11.80;4.07;;;;;;;1.97;100.00;98372.31;5089836;28;20046;-81
2022/12/09 02:54:16;;;;;;;13.65;3.15;;;;;;;1.92;100.00;98376.34;5081528;28;20405;-81
2022/12/09 02:56:50;;;;;;;12.52;3.10;;;;;;;1.98;100.00;98367.97;5090530;28;20102;-80
2022/12/09 02:59:15;;;;;;;16.10;3.15;;;;;;;1.95;100.00;98374.25;5069060;28;20128;-81
2022/12/09 03:01:59;;;;;;;12.00;2.78;;;;;;;1.74;100.00;98371.25;5067361;28;20040;-82
2022/12/09 03:04:27;;;;;;;12.02;2.88;;;;;;;1.93;100.00;98372.78;5081307;28;20036;-81
2022/12/09 03:06:54;;;;;;;13.68;2.30;;;;;;;1.97;100.00;98366.34;5084658;28;20024;-82
2022/12/09 03:09:27;;;;;;;15.00;2.67;;;;;;;1.97;100.00;98374.91;5072110;28;20020;-82
2022/12/09 03:11:58;;;;;;;19.17;2.78;;;;;;;1.91;100.00;98372.97;5087646;28;20442;-79
2022/12/09 03:14:34;;;;;;;8.95;2.97;;;;;;;1.78;100.00;98367.38;5089735;28;20031;-80
2022/12/09 03:17:06;;;;;;;8.93;3.08;;;;;;;1.75;100.00;98367.69;5088689;28;20020;-80
2022/12/09 03:19:43;;;;;;;20.67;2.97;;;;;;;1.69;100.00;98361.34;5071330;28;20024;-80
2022/12/09 03:22:15;;;;;;;16.27;2.45;;;;;;;1.78;100.00;98362.22;5089153;28;20059;-81
2022/12/09 03:24:54;;;;;;;6.85;2.00;;;;;;;1.80;100.00;98348.16;5071007;28;20993;-82
2022/12/09 03:27:39;;;;;;;12.50;2.40;;;;;;;1.76;100.00;98361.56;5089996;28;20028;-83
2022/12/09 03:30:08;;;;;;;12.00;2.28;;;;;;;1.83;100.00;98358.19;5089437;28;20587;-83
2022/12/09 03:32:35;;;;;;;8.93;2.33;;;;;;;1.79;100.00;98349.13;5090938;28;20032;-82
2022/12/09 03:35:07;;;;;;;10.90;2.10;;;;;;;1.78;100.00;98352.69;5090961;28;20111;-83
2022/12/09 03:37:37;;;;;;;13.40;2.60;;;;;;;1.80;100.00;98352.50;5089617;28;20070;-82
2022/12/09 03:40:07;;;;;;;13.45;3.00;;;;;;;1.84;100.00;98346.06;5071594;28;20024;-82
2022/12/09 03:42:41;;;;;;;11.20;2.65;;;;;;;1.78;100.00;98333.75;5089780;28;20490;-82
2022/12/09 03:45:14;;;;;;;15.52;2.55;;;;;;;1.78;100.00;98331.97;5090256;28;20036;-82
2022/12/09 03:47:41;;;;;;;9.93;2.33;;;;;;;1.69;100.00;98332.91;5055628;28;20081;-82
2022/12/09 03:50:09;;;;;;;11.63;2.55;;;;;;;1.75;100.00;98328.88;5089027;28;20032;-83
2022/12/09 03:52:44;;;;;;;13.00;2.20;;;;;;;1.73;100.00;98334.19;5071730;28;20081;-83
2022/12/09 03:55:22;;;;;;;9.18;2.00;;;;;;;1.75;100.00;98334.06;5071253;28;20493;-83
2022/12/09 03:57:55;;;;;;;11.30;1.95;;;;;;;1.66;100.00;98323.66;5068842;28;20405;-82
2022/12/09 04:00:21;;;;;;;5.63;1.80;;;;;;;1.92;100.00;98333.16;5045463;28;20122;-83
2022/12/09 04:02:47;;;;;;;8.43;2.90;;;;;;;1.74;100.00;98317.72;5088731;28;20127;-81
2022/12/09 04:05:12;;;;;;;7.90;2.15;;;;;;;1.58;100.00;98328.00;5054902;28;20039;-82
2022/12/09 04:07:38;;;;;;;9.98;2.10;;;;;;;1.84;100.00;98321.00;5089964;28;20024;-82
2022/12/09 04:10:06;;;;;;;8.88;1.63;;;;;;;1.89;100.00;98319.72;5090429;28;20103;-83
2022/12/09 04:12:31;;;;;;;10.93;2.65;;;;;;;1.62;100.00;98316.38;5090177;28;20369;-82
2022/12/09 04:14:57;;;;;;;13.27;2.63;;;;;;;1.85;100.00;98312.28;5089282;28;20024;-83
2022/12/09 04:17:22;;;;;;;8.60;1.80;;;;;;;1.85;100.00;98304.50;5090197;28;20465;-82
2022/12/09 04:19:48;;;;;;;14.70;1.98;;;;;;;1.80;100.00;98304.16;5089792;28;20035;-82
2022/12/09 04:22:14;;;;;;;20.98;2.60;;;;;;;1.69;100.00;98304.44;5072073;28;20393;-82
2022/12/09 04:24:40;;;;;;;10.93;2.13;;;;;;;1.48;100.00;98300.47;5092576;28;20031;-82
2022/12/09 04:27:05;;;;;;;8.68;2.22;;;;;;;1.64;100.00;98304.09;5093752;28;20024;-83
2022/12/09 04:29:31;;;;;;;7.53;1.95;;;;;;;1.76;100.00;98308.00;5092169;28;20037;-84
2022/12/09 04:31:56;;;;;;;9.18;2.20;;;;;;;1.56;100.00;98310.84;5093737;28;20035;-82
2022/12/09 04:34:22;;;;;;;11.73;2.33;;;;;;;1.65;100.00;98303.94;5066405;28;20128;-81
2022/12/09 04:36:48;;;;;;;5.70;1.77;;;;;;;1.69;100.00;98302.69;5084399;28;20501;-81
2022/12/09 04:39:13;;;;;;;10.23;1.83;;;;;;;1.79;100.00;98297.38;5083969;28;20035;-82
2022/12/09 04:41:41;;;;;;;12.82;2.13;;;;;;;1.66;100.00;98302.16;5088969;28;20028;-82
2022/12/09 04:44:07;;;;;;;11.05;1.80;;;;;;;1.59;100.00;98298.59;5088250;28;20074;-82
2022/12/09 04:46:32;;;;;;;14.10;2.47;;;;;;;1.63;100.00;98305.06;5088088;28;20375;-82
2022/12/09 04:48:58;;;;;;;11.50;2.03;;;;;;;1.73;100.00;98302.38;5086721;28;20055;-81
2022/12/09 04:51:24;;;;;;;11.27;1.98;;;;;;;1.69;100.00;98301.84;5093237;28;20073;-81
2022/12/09 04:53:50;;;;;;;9.30;2.20;;;;;;;1.70;100.00;98313.81;5088607;28;20031;-81
2022/12/09 04:56:19;;;;;;;9.82;1.95;;;;;;;1.70;100.00;98306.06;5092298;28;20047;-81
2022/12/09 04:58:45;;;;;;;10.63;2.45;;;;;;;1.70;100.00;98303.47;5091262;28;20535;-82
2022/12/09 05:01:14;;;;;;;12.52;2.45;;;;;;;1.63;100.00;98305.88;5092261;28;20082;-81
2022/12/09 05:03:40;;;;;;;8.20;1.60;;;;;;;1.53;100.00;98305.97;5089261;28;20059;-81
2022/12/09 05:06:11;;;;;;;13.63;2.38;;;;;;;1.76;100.00;98315.78;5092277;28;20028;-81
2022/12/09 05:08:37;;;;;;;10.95;1.75;;;;;;;1.60;100.00;98306.19;5092178;28;20016;-80
2022/12/09 05:11:04;;;;;;;10.40;2.28;;;;;;;1.64;100.00;98315.25;5073726;28;20031;-82
2022/12/09 05:13:29;;;;;;;6.32;1.60;;;;;;;1.65;100.00;98316.88;5073605;28;20034;-81
2022/12/09 05:16:01;;;;;;;6.25;1.75;;;;;;;1.62;100.00;98309.41;5073241;28;20151;-80
2022/12/09 05:18:27;;;;;;;7.88;1.83;;;;;;;1.54;100.00;98317.94;5092233;28;20024;-80
2022/12/09 05:20:52;;;;;;;6.95;1.55;;;;;;;1.49;100.00;98317.59;5073728;28;20038;-81
2022/12/09 05:23:19;;;;;;;13.82;1.90;;;;;;;1.24;100.00;98301.97;5072366;28;20028;-81
2022/12/09 05:25:44;;;;;;;12.55;2.03;;;;;;;1.34;100.00;98317.38;5073857;28;20453;-81
2022/12/09 05:28:10;;;;;;;8.40;1.85;;;;;;;1.40;100.00;98315.94;5091748;28;20027;-82
2022/12/09 05:30:36;;;;;;;5.10;1.70;;;;;;;1.41;100.00;98320.97;5072291;28;20039;-81
2022/12/09 05:33:03;;;;;;;9.80;1.73;;;;;;;1.48;100.00;98317.78;5091125;28;20459;-81
2022/12/09 05:35:28;;;;;;;3.97;1.55;;;;;;;1.49;100.00;98316.81;5091074;28;20064;-81
2022/12/09 05:37:54;;;;;;;7.38;2.13;;;;;;;1.40;100.00;98305.59;5091717;28;20059;-82
2022/12/09 05:40:20;;;;;;;6.05;1.73;;;;;;;1.42;100.00;98301.88;5091641;28;20413;-81
2022/12/09 05:42:46;;;;;;;7.15;2.00;;;;;;;1.43;100.00;98313.84;5091486;28;20044;-82
2022/12/09 05:45:11;;;;;;;2.95;1.48;;;;;;;1.30;100.00;98312.66;5072648;28;20111;-81
2022/12/09 05:47:37;;;;;;;9.60;1.73;;;;;;;1.34;100.00;98313.97;5090611;28;20024;-80
2022/12/09 05:50:04;;;;;;;9.23;1.50;;;;;;;1.19;100.00;98300.78;5072205;28;20036;-80
2022/12/09 05:52:30;;;;;;;6.38;1.63;;;;;;;1.23;100.00;98302.94;5076172;28;20477;-81
2022/12/09 05:54:55;;;;;;;5.22;1.50;;;;;;;1.23;100.00;98297.75;5074085;28;20023;-80
2022/12/09 05:57:21;;;;;;;6.78;1.48;;;;;;;1.21;100.00;98294.50;5091540;28;20028;-80
2022/12/09 05:59:47;;;;;;;2.03;1.48;;;;;;;1.12;100.00;98292.81;5091061;28;20385;-80
2022/12/09 06:02:13;;;;;;;6.32;1.75;;;;;;;1.09;100.00;98303.47;5073002;28;20387;-81
2022/12/09 06:04:38;;;;;;;6.78;1.70;;;;;;;0.91;100.00;98296.56;5072993;28;20036;-80
2022/12/09 06:07:04;;;;;;;4.15;1.83;;;;;;;0.90;100.00;98297.53;5090644;28;20039;-81
2022/12/09 06:09:29;;;;;;;13.25;1.77;;;;;;;0.87;100.00;98292.66;5091168;28;20030;-80
2022/12/09 06:11:54;;;;;;;3.60;1.50;;;;;;;0.87;100.00;98299.59;5090541;28;20027;-80
2022/12/09 06:14:20;;;;;;;10.52;1.80;;;;;;;0.94;100.00;98303.22;5072413;28;20107;-81
2022/12/09 06:16:46;;;;;;;4.32;1.40;;;;;;;0.93;100.00;98292.06;5091155;28;20032;-81
2022/12/09 06:19:11;;;;;;;6.38;2.05;;;;;;;0.89;100.00;98301.06;5092443;28;20028;-80
2022/12/09 06:21:39;;;;;;;9.30;1.98;;;;;;;0.79;100.00;98290.03;5088530;28;20028;-81
2022/12/09 06:24:06;;;;;;;9.82;2.60;;;;;;;0.65;100.00;98294.78;5090811;28;20028;-81
2022/12/09 06:26:31;;;;;;;10.90;1.50;;;;;;;0.82;100.00;98294.91;5090526;28;20355;-80
2022/12/09 06:28:58;;;;;;;5.70;1.52;;;;;;;0.88;100.00;98296.03;5069441;28;20081;-80
2022/12/09 06:31:25;;;;;;;5.25;1.30;;;;;;;0.70;100.00;98302.06;5086578;28;20031;-81
2022/12/09 06:33:51;;;;;;;7.88;1.70;;;;;;;0.78;100.00;98296.97;5091029;28;20028;-81
2022/12/09 06:36:16;;;;;;;4.82;1.70;;;;;;;0.88;100.00;98291.72;5090858;28;20028;-81
2022/12/09 06:38:42;;;;;;;3.08;1.48;;;;;;;0.88;100.00;98298.63;5091740;28;20536;-81
2022/12/09 06:41:09;;;;;;;7.40;1.65;;;;;;;0.89;100.00;98297.69;5072819;28;20024;-81
2022/12/09 06:43:35;;;;;;;7.07;1.80;;;;;;;0.85;100.00;98292.00;5089863;28;20048;-84
2022/12/09 06:46:02;;;;;;;5.60;2.30;;;;;;;0.87;100.00;98284.09;5072444;28;20058;-83
2022/12/09 06:48:28;;;;;;;8.13;2.05;;;;;;;0.83;100.00;98286.97;5089418;28;20028;-85
2022/12/09 06:50:54;;;;;;;5.97;1.65;;;;;;;0.65;100.00;98278.44;5090518;28;20035;-83
2022/12/09 06:53:20;;;;;;;6.68;1.92;;;;;;;0.78;100.00;98286.63;5090895;28;20042;-83
2022/12/09 06:55:45;;;;;;;2.50;1.55;;;;;;;0.74;100.00;98284.50;5090228;28;20541;-83
2022/12/09 06:58:11;;;;;;;3.55;1.35;;;;;;;0.50;100.00;98281.56;5091227;28;20074;-84
2022/12/09 07:00:38;;;;;;;5.03;1.40;;;;;;;0.39;100.00;98289.53;5052362;28;20051;-83
2022/12/09 07:03:04;;;;;;;4.45;1.63;;;;;;;0.36;100.00;98275.13;5082637;28;20032;-83
2022/12/09 07:05:30;;;;;;;8.45;2.25;;;;;;;0.49;100.00;98279.13;5066790;28;20100;-82
2022/12/09 07:07:56;;;;;;;3.67;1.48;;;;;;;0.56;100.00;98270.66;5083385;28;20096;-82
2022/12/09 07:10:21;;;;;;;5.90;1.88;;;;;;;0.58;100.00;98278.22;5086045;28;20071;-84
2022/12/09 07:12:47;;;;;;;6.15;1.85;;;;;;;0.49;100.00;98266.22;5068829;28;20055;-81
2022/12/09 07:15:13;;;;;;;5.97;1.95;;;;;;;0.51;100.00;98266.88;5090529;28;20494;-82
2022/12/09 07:17:39;;;;;;;5.63;1.73;;;;;;;0.47;100.00;98275.88;5090589;28;20024;-83
2022/12/09 07:20:05;;;;;;;4.13;1.80;;;;;;;0.31;100.00;98267.03;5088294;28;20482;-84
2022/12/09 07:22:32;;;;;;;4.10;1.95;;;;;;;0.35;100.00;98272.72;5084538;28;20028;-82
2022/12/09 07:24:58;;;;;;;5.03;1.80;;;;;;;0.54;100.00;98275.16;5077876;28;20032;-82
2022/12/09 07:27:24;;;;;;;6.00;1.90;;;;;;;0.54;100.00;98271.75;5090255;28;20059;-82
2022/12/09 07:29:50;;;;;;;13.77;4.15;;;;;;;0.47;100.00;98268.16;5070645;28;20032;-83
2022/12/09 07:32:15;;;;;;;7.90;2.30;;;;;;;0.42;100.00;98259.06;5090437;28;21377;-85
2022/12/09 07:34:41;;;;;;;5.32;2.20;;;;;;;0.56;100.00;98264.66;5091299;28;20039;-81
2022/12/09 07:37:08;;;;;;;5.97;1.88;;;;;;;0.67;100.00;98254.09;5093243;28;20504;-82
2022/12/09 07:39:34;;;;;;;11.27;2.38;;;;;;;0.83;100.00;98265.50;5091880;28;20032;-81
2022/12/09 07:42:00;;;;;;;9.32;2.28;;;;;;;0.87;100.00;98260.84;5093917;28;20028;-82
2022/12/09 07:44:27;;;;;;;5.35;2.00;;;;;;;0.92;100.00;98263.81;5092469;28;20065;-81
2022/12/09 07:46:53;;;;;;;4.25;1.98;;;;;;;0.80;100.00;98260.66;5089893;28;20024;-82
2022/12/09 07:49:19;;;;;;;7.90;2.05;;;;;;;0.89;100.00;98259.72;5081530;28;20030;-81
2022/12/09 07:51:44;;;;;;;8.57;2.13;;;;;;;0.90;100.00;98255.41;5087863;28;20691;-81
2022/12/09 07:54:15;;;;;;;10.70;2.00;;;;;;;1.12;100.00;98259.22;5079931;28;20032;-83
2022/12/09 07:56:42;;;;;;;9.38;3.00;;;;;;;1.03;100.00;98254.97;5086674;28;20035;-84
2022/12/09 07:59:09;;;;;;;11.27;2.88;;;;;;;1.09;100.00;98264.72;5091000;28;20044;-82
2022/12/09 08:01:35;;;;;;;8.23;2.63;;;;;;;1.15;100.00;98261.50;5088790;28;20523;-83
2022/12/09 08:04:04;;;;;;;9.75;2.50;;;;;;;1.00;100.00;98253.50;5093042;28;20036;-84
2022/12/09 08:06:30;;;;;;;7.20;2.10;;;;;;;1.07;100.00;98245.97;5093604;28;20123;-82
2022/12/09 08:08:58;;;;;;;10.52;2.38;;;;;;;1.03;100.00;98257.56;5092284;28;20205;-83
2022/12/09 08:11:26;;;;;;;10.05;3.28;;;;;;;1.04;100.00;98247.06;5095198;28;20040;-85
2022/12/09 08:13:54;;;;;;;10.75;3.13;;;;;;;1.17;100.00;98251.03;5071259;28;20028;-82
2022/12/09 08:16:20;;;;;;;6.93;2.20;;;;;;;0.95;100.00;98246.19;5092954;28;20182;-82
2022/12/09 08:18:48;;;;;;;6.60;2.47;;;;;;;0.99;100.00;98242.38;5076585;28;20028;-82
2022/12/09 08:21:20;;;;;;;14.80;3.15;;;;;;;1.07;100.00;98246.75;5093369;28;20040;-82
2022/12/09 08:23:45;;;;;;;7.32;3.38;;;;;;;1.31;100.00;98241.88;5075267;28;20070;-82
2022/12/09 08:26:12;;;;;;;6.43;3.00;;;;;;;1.25;100.00;98241.53;5094428;28;20056;-82
2022/12/09 08:28:38;;;;;;;14.07;3.63;;;;;;;1.40;100.00;98248.72;5074139;28;20030;-83
2022/12/09 08:31:13;;;;;;;11.18;2.88;;;;;;;1.41;100.00;98245.16;5093764;28;20103;-82
2022/12/09 08:33:39;;;;;;;10.68;3.95;;;;;;;1.31;100.00;98242.69;5089414;28;20044;-83
2022/12/09 08:36:11;;;;;;;10.50;2.85;;;;;;;1.18;100.00;98237.94;5108968;28;20377;-84
2022/12/09 08:38:38;;;;;;;11.03;2.87;;;;;;;1.43;100.00;98241.44;5073518;28;20488;-86
2022/12/09 08:41:33;;;;;;;3.60;2.22;;;;;;;1.50;100.00;98241.63;5095581;28;20058;-87
2022/12/09 08:44:12;;;;;;;7.07;2.65;;;;;;;1.56;100.00;98246.16;5108327;28;20044;-86
2022/12/09 08:46:43;;;;;;;9.40;2.70;;;;;;;1.37;100.00;98246.41;5092598;28;20028;-87
2022/12/09 08:49:08;;;;;;;5.28;3.20;;;;;;;1.37;100.00;98247.25;5075464;28;20034;-87
2022/12/09 08:51:35;;;;;;;7.65;2.90;;;;;;;1.45;100.00;98253.41;5093753;28;20824;-85
2022/12/09 08:54:02;;;;;;;6.35;2.30;;;;;;;1.43;100.00;98253.56;5092474;28;20497;-86
2022/12/09 08:56:28;;;;;;;8.20;2.38;;;;;;;1.70;100.00;98252.56;5093670;28;20447;-86
2022/12/09 08:58:54;;;;;;;6.97;2.58;;;;;;;1.67;100.00;98246.88;5075501;28;20065;-86
2022/12/09 09:01:23;;;;;;;8.65;2.30;;;;;;;1.57;100.00;98241.81;5095767;28;20068;-86
2022/12/09 09:03:49;;;;;;;8.68;2.60;;;;;;;1.60;100.00;98244.09;5092538;28;20036;-85
2022/12/09 09:06:17;;;;;;;12.25;3.60;;;;;;;1.63;100.00;98251.53;5093387;28;20615;-85
2022/12/09 09:08:43;;;;;;;11.57;3.60;;;;;;;1.52;100.00;98237.09;5089458;28;20036;-88
2022/12/09 09:11:49;;;;;;;8.27;3.03;;;;;;;1.96;100.00;98241.28;5077510;28;20031;-89
2022/12/09 09:14:15;;;;;;;10.57;2.75;;;;;;;1.80;100.00;98236.06;5076438;28;20046;-87
2022/12/09 09:16:42;;;;;;;6.85;2.35;;;;;;;1.78;100.00;98243.19;5078470;28;20039;-86
2022/12/09 09:19:22;;;;;;;8.93;2.40;;;;;;;2.24;100.00;98237.63;5096066;28;20028;-89
2022/12/09 09:21:48;;;;;;;4.65;2.40;;;;;;;2.10;100.00;98242.44;5074659;28;20377;-88
2022/12/09 09:24:16;;;;;;;6.18;2.15;;;;;;;2.21;100.00;98253.47;5093592;28;20031;-89
2022/12/09 09:26:43;;;;;;;6.55;2.22;;;;;;;2.17;100.00;98252.19;5092895;28;20124;-86
2022/12/09 09:29:14;;;;;;;7.85;2.78;;;;;;;2.14;100.00;98259.28;5092509;28;20153;-83
2022/12/09 09:31:40;;;;;;;8.25;2.80;;;;;;;2.29;100.00;98250.88;5074093;28;20039;-84
2022/12/09 09:34:05;;;;;;;17.45;2.75;;;;;;;2.42;100.00;98230.50;5092212;28;20024;-82
2022/12/09 09:36:31;;;;;;;9.38;3.05;;;;;;;2.57;100.00;98237.63;5057067;28;20122;-82
2022/12/09 09:38:57;;;;;;;8.05;2.53;;;;;;;2.41;100.00;98234.06;5073494;28;20028;-85
2022/12/09 09:41:50;;;;;;;5.20;3.25;;;;;;;2.54;100.00;98256.06;5073738;28;20024;-86
2022/12/09 09:44:27;;;;;;;6.07;2.10;;;;;;;2.55;100.00;98252.50;5073556;28;20044;-84
2022/12/09 09:46:56;;;;;;;5.70;2.20;;;;;;;2.56;100.00;98256.75;5073469;28;20043;-83
2022/12/09 09:49:37;;;;;;;12.55;2.95;;;;;;;2.70;100.00;98263.03;5090392;28;20028;-85
2022/12/09 09:52:07;;;;;;;6.35;2.17;;;;;;;2.83;100.00;98259.94;5091425;28;20112;-83
2022/12/09 09:54:33;;;;;;;8.32;4.30;;;;;;;2.69;100.00;98251.84;5110315;28;20553;-84
2022/12/09 09:57:04;;;;;;;10.27;2.80;;;;;;;2.97;100.00;98253.28;5091452;28;20032;-84
2022/12/09 09:59:42;;;;;;;10.07;2.40;;;;;;;3.09;100.00;98256.34;5090189;28;20035;-84
2022/12/09 10:02:16;;;;;;;4.82;2.40;;;;;;;2.75;100.00;98255.59;5073286;28;20477;-85
2022/12/09 10:05:02;;;;;;;7.88;2.45;;;;;;;2.83;100.00;98252.97;5089793;28;20032;-85
2022/12/09 10:07:40;;;;;;;7.85;2.45;;;;;;;3.02;100.00;98257.97;5090142;28;20036;-84
2022/12/09 10:10:44;;;;;;;9.02;2.75;;;;;;;3.10;100.00;98257.97;5071892;28;20119;-84
2022/12/09 10:13:16;;;;;;;15.40;2.85;;;;;;;3.15;100.00;98255.69;5089333;28;20047;-85
2022/12/09 10:15:53;;;;;;;6.57;3.17;;;;;;;3.21;100.00;98255.03;5071544;28;20028;-83
2022/12/09 10:18:35;;;;;;;7.30;2.35;;;;;;;3.23;100.00;98255.66;5090309;28;20103;-85
2022/12/09 10:21:01;;;;;;;13.23;2.90;;;;;;;3.32;100.00;98245.25;5087939;28;20044;-84
2022/12/09 10:23:30;;;;;;;7.65;2.97;;;;;;;3.32;100.00;98245.25;5071906;28;20043;-81
2022/12/09 10:26:01;;;;;;;7.38;2.78;;;;;;;3.19;100.00;98243.19;5072407;28;20074;-83
2022/12/09 10:28:40;;;;;;;7.82;3.20;;;;;;;3.24;100.00;98241.72;5072475;28;20024;-83
2022/12/09 10:31:09;;;;;;;12.00;3.75;;;;;;;3.28;100.00;98244.78;5056718;28;20051;-85
2022/12/09 10:33:37;;;;;;;10.10;3.95;;;;;;;2.89;100.00;98251.50;5097166;28;20078;-83
2022/12/09 10:36:04;;;;;;;9.80;3.58;;;;;;;2.89;100.00;98246.31;5088994;28;20110;-82
2022/12/09 10:38:30;;;;;;;10.85;3.13;;;;;;;3.28;100.00;98247.38;5091052;28;20481;-79
2022/12/09 10:41:01;;;;;;;10.18;3.65;;;;;;;3.40;100.00;98250.44;5089796;28;20028;-81
2022/12/09 10:43:34;;;;;;;5.80;2.78;;;;;;;3.47;100.00;98248.78;5088922;28;20044;-84
2022/12/09 10:46:02;;;;;;;12.80;2.95;;;;;;;3.46;100.00;98238.56;5072379;28;20382;-85
2022/12/09 10:48:36;;;;;;;13.25;3.33;;;;;;;3.07;100.00;98238.38;5092233;28;20032;-85
2022/12/09 10:51:26;;;;;;;11.35;2.72;;;;;;;3.35;100.00;98235.34;5089504;28;20535;-84
2022/12/09 10:54:18;;;;;;;14.50;3.05;;;;;;;3.33;100.00;98239.09;5088844;28;20028;-85
2022/12/09 10:57:06;;;;;;;13.20;2.95;;;;;;;3.54;100.00;98222.97;5089137;28;20040;-83
2022/12/09 10:59:33;;;;;;;8.48;2.83;;;;;;;3.49;100.00;98215.69;5089041;28;20084;-86
2022/12/09 11:02:01;;;;;;;8.82;3.65;;;;;;;3.31;100.00;98217.69;5072272;28;20067;-83
2022/12/09 11:04:29;;;;;;;7.38;2.95;;;;;;;3.48;100.00;98208.88;5085303;28;20105;-83
2022/12/09 11:07:00;;;;;;;7.97;3.10;;;;;;;3.54;100.00;98212.59;5088623;28;20024;-85
2022/12/09 11:09:29;;;;;;;11.32;3.00;;;;;;;3.53;100.00;98222.13;5077160;28;20028;-83
2022/12/09 11:11:54;;;;;;;8.88;3.55;;;;;;;3.54;100.00;98204.81;5089259;28;20430;-82
2022/12/09 11:14:25;;;;;;;8.95;2.75;;;;;;;3.81;100.00;98213.91;5090045;28;20020;-82
2022/12/09 11:16:53;;;;;;;8.63;3.00;;;;;;;3.84;100.00;98207.56;5089423;28;20656;-82
2022/12/09 11:19:30;;;;;;;12.88;4.30;;;;;;;3.51;100.00;98224.09;5054986;28;20024;-82
2022/12/09 11:22:39;;;;;;;11.23;4.45;;;;;;;3.69;100.00;98225.66;5090048;28;20028;-84
2022/12/09 11:25:11;;;;;;;16.40;4.43;;;;;;;3.66;100.00;98220.78;5070894;28;20040;-84
2022/12/09 11:27:46;;;;;;;10.18;4.25;;;;;;;3.72;100.00;98209.72;5090432;28;20032;-86
2022/12/09 11:30:21;;;;;;;11.90;4.20;;;;;;;3.69;100.00;98217.84;5055006;28;20024;-85
2022/12/09 11:33:14;;;;;;;11.32;4.68;;;;;;;3.73;100.00;98211.34;5066550;28;22038;-84
2022/12/09 11:35:42;;;;;;;11.90;5.63;;;;;;;3.43;100.00;98204.19;5091368;28;20028;-86
2022/12/09 11:38:37;;;;;;;20.48;8.73;;;;;;;3.59;100.00;98210.28;5084247;28;20035;-84
2022/12/09 11:41:08;;;;;;;13.48;7.40;;;;;;;3.39;100.00;98209.91;5078291;28;20083;-84